Axtell, Texas
Current Conditions -  °F | °C
As of 9:55 AM on Friday 24 Oct 2014 (Local Time) from KCNW Reporting Station
Few Clouds Few Clouds  
Wind Chill: 66°   Ceiling: Unl
Heat Index: 66°   Visibility: 10mi
Dew Point: 55°   Wind: 5mph
Humidity: 68%   Direction: 150°SSE
Pressure: 30.19"   Gusts: NA
Location:  31.66°N, 96.97°W
Report Text: KCNW 241455Z 15004KT 10SM FEW060 19/13 A3019
Loading
Personal Weather Stations






























Interactive Weather Map New forecast layout! Learn more

10-Day Weather Forecast

Advertisements
Track Severe Weather on mobile